sensor_id;sensor_type;location;lat;lon;timestamp;pressure;altitude;pressure_sealevel;temperature;humidity
73306;BME280;61530;51.158;0.880;2023-03-16T00:00:18;1009.82;;;6.1875;45.6745
73306;BME280;61530;51.158;0.880;2023-03-16T00:01:21;1009.84;;;6.25;47.9552
73306;BME280;61530;51.158;0.880;2023-03-16T00:02:26;1009.8;;;6.1875;46.6047
73306;BME280;61530;51.158;0.880;2023-03-16T00:03:30;1009.8;;;6.25;47.9548
73306;BME280;61530;51.158;0.880;2023-03-16T00:04:33;1009.77;;;6.25;50.6775
73306;BME280;61530;51.158;0.880;2023-03-16T00:05:37;1009.76;;;6.1875;50.686
73306;BME280;61530;51.158;0.880;2023-03-16T00:06:42;1009.74;;;6.3125;47.8107
73306;BME280;61530;51.158;0.880;2023-03-16T00:07:46;1009.75;;;6.3125;47.7401
73306;BME280;61530;51.158;0.880;2023-03-16T00:08:49;1009.72;;;6.25;49.0909
73306;BME280;61530;51.158;0.880;2023-03-16T00:09:53;1009.74;;;6.25;47.4673
73306;BME280;61530;51.158;0.880;2023-03-16T00:10:59;1009.74;;;6.25;50.332
73306;BME280;61530;51.158;0.880;2023-03-16T00:12:03;1009.72;;;6.25;48.5134
73306;BME280;61530;51.158;0.880;2023-03-16T00:13:05;1009.72;;;6.25;48.0891
73306;BME280;61530;51.158;0.880;2023-03-16T00:14:09;1009.68;;;6.1875;46.219
73306;BME280;61530;51.158;0.880;2023-03-16T00:15:14;1009.69;;;6.25;49.8386
73306;BME280;61530;51.158;0.880;2023-03-16T00:16:18;1009.63;;;6.25;51.6979
73306;BME280;61530;51.158;0.880;2023-03-16T00:17:21;1009.67;;;6.25;50.7562
73306;BME280;61530;51.158;0.880;2023-03-16T00:18:27;1009.66;;;6.1875;48.478
73306;BME280;61530;51.158;0.880;2023-03-16T00:19:30;1009.68;;;6.25;50.3677
73306;BME280;61530;51.158;0.880;2023-03-16T00:20:34;1009.62;;;6.1875;47.8373
73306;BME280;61530;51.158;0.880;2023-03-16T00:21:38;1009.63;;;6.25;47.0909
73306;BME280;61530;51.158;0.880;2023-03-16T00:22:41;1009.62;;;6.125;48.5524
73306;BME280;61530;51.158;0.880;2023-03-16T00:23:46;1009.53;;;6.1875;47.1664
73306;BME280;61530;51.158;0.880;2023-03-16T00:24:50;1009.49;;;6.1875;46.149
73306;BME280;61530;51.158;0.880;2023-03-16T00:25:54;1009.48;;;6.1875;46.0794
73306;BME280;61530;51.158;0.880;2023-03-16T00:26:57;1009.5;;;6.1875;43.8379
73306;BME280;61530;51.158;0.880;2023-03-16T00:28:03;1009.44;;;6.1875;46.1686
73306;BME280;61530;51.158;0.880;2023-03-16T00:29:06;1009.46;;;6.1875;45.9837
73306;BME280;61530;51.158;0.880;2023-03-16T00:30:11;1009.41;;;6.125;45.1248
73306;BME280;61530;51.158;0.880;2023-03-16T00:31:13;1009.38;;;6.125;44.859
73306;BME280;61530;51.158;0.880;2023-03-16T00:32:21;1009.42;;;6.0625;44.3111
73306;BME280;61530;51.158;0.880;2023-03-16T00:33:22;1009.43;;;6.0;49.0459
73306;BME280;61530;51.158;0.880;2023-03-16T00:34:25;1009.41;;;5.9375;47.1459
73306;BME280;61530;51.158;0.880;2023-03-16T00:35:29;1009.46;;;6.0;50.2861
73306;BME280;61530;51.158;0.880;2023-03-16T00:36:35;1009.39;;;6.0;52.135
73306;BME280;61530;51.158;0.880;2023-03-16T00:37:38;1009.44;;;6.0625;50.8245
73306;BME280;61530;51.158;0.880;2023-03-16T00:38:42;1009.39;;;6.1875;47.1041
73306;BME280;61530;51.158;0.880;2023-03-16T00:39:46;1009.38;;;6.1875;48.8215
73306;BME280;61530;51.158;0.880;2023-03-16T00:40:50;1009.34;;;6.1875;49.2771
73306;BME280;61530;51.158;0.880;2023-03-16T00:41:54;1009.36;;;6.1875;50.9035
73306;BME280;61530;51.158;0.880;2023-03-16T00:42:57;1009.31;;;6.1875;52.0137
73306;BME280;61530;51.158;0.880;2023-03-16T00:44:01;1009.32;;;6.25;50.3825
73306;BME280;61530;51.158;0.880;2023-03-16T00:45:08;1009.28;;;6.25;48.2574
73306;BME280;61530;51.158;0.880;2023-03-16T00:46:12;1009.25;;;6.125;47.8915
73306;BME280;61530;51.158;0.880;2023-03-16T00:47:14;1009.18;;;6.1875;46.3302
73306;BME280;61530;51.158;0.880;2023-03-16T00:48:17;1009.16;;;6.25;45.3324
73306;BME280;61530;51.158;0.880;2023-03-16T00:49:22;1009.14;;;6.125;44.3928
73306;BME280;61530;51.158;0.880;2023-03-16T00:50:26;1009.17;;;6.1875;44.1127
73306;BME280;61530;51.158;0.880;2023-03-16T00:51:29;1009.17;;;6.1875;47.3007
73306;BME280;61530;51.158;0.880;2023-03-16T00:52:33;1009.18;;;6.25;50.3685
73306;BME280;61530;51.158;0.880;2023-03-16T00:53:41;1009.17;;;6.1875;48.4373
73306;BME280;61530;51.158;0.880;2023-03-16T00:54:43;1009.11;;;6.1875;47.2057
73306;BME280;61530;51.158;0.880;2023-03-16T00:55:45;1009.1;;;6.1875;48.5171
73306;BME280;61530;51.158;0.880;2023-03-16T00:56:49;1009.08;;;6.1875;47.2794
73306;BME280;61530;51.158;0.880;2023-03-16T00:57:55;1009.08;;;6.1875;48.1164
73306;BME280;61530;51.158;0.880;2023-03-16T00:58:58;1009.07;;;6.125;48.9195
73306;BME280;61530;51.158;0.880;2023-03-16T01:00:02;1009.06;;;6.1875;48.9739
73306;BME280;61530;51.158;0.880;2023-03-16T01:01:07;1009.05;;;6.125;50.9046
73306;BME280;61530;51.158;0.880;2023-03-16T01:02:11;1009.09;;;6.1875;51.3996
73306;BME280;61530;51.158;0.880;2023-03-16T01:03:14;1009.06;;;6.1875;50.5229
73306;BME280;61530;51.158;0.880;2023-03-16T01:04:18;1009.08;;;6.0625;49.9087
73306;BME280;61530;51.158;0.880;2023-03-16T01:05:21;1009.04;;;6.125;49.1715
73306;BME280;61530;51.158;0.880;2023-03-16T01:06:27;1009.05;;;6.1875;50.1715
73306;BME280;61530;51.158;0.880;2023-03-16T01:07:30;1009.01;;;6.0625;48.8447
73306;BME280;61530;51.158;0.880;2023-03-16T01:08:33;1008.95;;;6.1875;46.8491
73306;BME280;61530;51.158;0.880;2023-03-16T01:09:38;1008.95;;;6.125;44.3297
73306;BME280;61530;51.158;0.880;2023-03-16T01:10:43;1008.93;;;6.125;45.4301
73306;BME280;61530;51.158;0.880;2023-03-16T01:11:46;1008.91;;;6.125;45.0329
73306;BME280;61530;51.158;0.880;2023-03-16T01:12:49;1008.94;;;6.125;47.98
73306;BME280;61530;51.158;0.880;2023-03-16T01:13:53;1008.88;;;6.1875;45.6675
73306;BME280;61530;51.158;0.880;2023-03-16T01:14:58;1008.88;;;6.125;45.4256
73306;BME280;61530;51.158;0.880;2023-03-16T01:16:02;1008.88;;;6.1875;46.5072
73306;BME280;61530;51.158;0.880;2023-03-16T01:17:07;1008.87;;;6.125;46.6352
73306;BME280;61530;51.158;0.880;2023-03-16T01:18:09;1008.87;;;6.125;48.1957
73306;BME280;61530;51.158;0.880;2023-03-16T01:19:15;1008.88;;;6.125;49.2056
73306;BME280;61530;51.158;0.880;2023-03-16T01:20:18;1008.84;;;6.125;48.5907
73306;BME280;61530;51.158;0.880;2023-03-16T01:21:22;1008.79;;;6.125;46.451
73306;BME280;61530;51.158;0.880;2023-03-16T01:22:25;1008.78;;;6.125;45.4244
73306;BME280;61530;51.158;0.880;2023-03-16T01:23:31;1008.78;;;6.1875;45.7113
73306;BME280;61530;51.158;0.880;2023-03-16T01:24:35;1008.79;;;6.1875;44.3597
73306;BME280;61530;51.158;0.880;2023-03-16T01:25:37;1008.76;;;6.1875;43.3743
73306;BME280;61530;51.158;0.880;2023-03-16T01:26:41;1008.73;;;6.125;43.0946
73306;BME280;61530;51.158;0.880;2023-03-16T01:27:46;1008.76;;;6.125;42.4273
73306;BME280;61530;51.158;0.880;2023-03-16T01:28:50;1008.77;;;6.1875;45.3834
73306;BME280;61530;51.158;0.880;2023-03-16T01:29:53;1008.73;;;6.125;44.5134
73306;BME280;61530;51.158;0.880;2023-03-16T01:31:00;1008.68;;;6.1875;44.5444
73306;BME280;61530;51.158;0.880;2023-03-16T01:32:03;1008.63;;;6.125;40.8956
73306;BME280;61530;51.158;0.880;2023-03-16T01:33:06;1008.64;;;6.1875;43.4331
73306;BME280;61530;51.158;0.880;2023-03-16T01:34:10;1008.6;;;6.1875;44.4056
73306;BME280;61530;51.158;0.880;2023-03-16T01:35:13;1008.52;;;6.1875;43.6813
73306;BME280;61530;51.158;0.880;2023-03-16T01:36:21;1008.48;;;6.1875;43.0652
73306;BME280;61530;51.158;0.880;2023-03-16T01:37:22;1008.44;;;6.1875;42.9097
73306;BME280;61530;51.158;0.880;2023-03-16T01:38:26;1008.39;;;6.25;41.9287
73306;BME280;61530;51.158;0.880;2023-03-16T01:39:29;1008.38;;;6.1875;42.5232
73306;BME280;61530;51.158;0.880;2023-03-16T01:40:34;1008.38;;;6.25;47.9788
73306;BME280;61530;51.158;0.880;2023-03-16T01:41:39;1008.37;;;6.25;46.8012
73306;BME280;61530;51.158;0.880;2023-03-16T01:42:44;1008.41;;;6.25;48.7538
73306;BME280;61530;51.158;0.880;2023-03-16T01:43:45;1008.39;;;6.3125;49.934
73306;BME280;61530;51.158;0.880;2023-03-16T01:44:53;1008.35;;;6.3125;50.0857
73306;BME280;61530;51.158;0.880;2023-03-16T01:46:13;1008.32;;;6.3125;52.7136
73306;BME280;61530;51.158;0.880;2023-03-16T01:46:57;1008.28;;;6.25;50.7708
73306;BME280;61530;51.158;0.880;2023-03-16T01:48:01;1008.22;;;6.375;50.252
73306;BME280;61530;51.158;0.880;2023-03-16T01:49:09;1008.21;;;6.375;47.4669
73306;BME280;61530;51.158;0.880;2023-03-16T01:50:10;1008.19;;;6.375;47.3335
73306;BME280;61530;51.158;0.880;2023-03-16T01:51:16;1008.14;;;6.4375;48.7056
73306;BME280;61530;51.158;0.880;2023-03-16T01:52:20;1008.19;;;6.375;49.701
73306;BME280;61530;51.158;0.880;2023-03-16T01:53:23;1008.19;;;6.4375;49.7268
73306;BME280;61530;51.158;0.880;2023-03-16T01:54:29;1008.18;;;6.375;51.1103
73306;BME280;61530;51.158;0.880;2023-03-16T01:55:29;1008.19;;;6.4375;51.631
73306;BME280;61530;51.158;0.880;2023-03-16T01:56:37;1008.09;;;6.4375;50.0598
73306;BME280;61530;51.158;0.880;2023-03-16T01:57:42;1008.1;;;6.5625;52.925
73306;BME280;61530;51.158;0.880;2023-03-16T01:58:43;1008.14;;;6.5625;54.7488
73306;BME280;61530;51.158;0.880;2023-03-16T01:59:49;1008.11;;;6.5625;54.1523
73306;BME280;61530;51.158;0.880;2023-03-16T02:00:49;1008.15;;;6.5;54.7188
73306;BME280;61530;51.158;0.880;2023-03-16T02:01:56;1008.08;;;6.5625;52.6871
73306;BME280;61530;51.158;0.880;2023-03-16T02:03:04;1008.07;;;6.5625;53.0073
73306;BME280;61530;51.158;0.880;2023-03-16T02:04:11;1008.04;;;6.5625;51.6441
73306;BME280;61530;51.158;0.880;2023-03-16T02:05:10;1008.05;;;6.5625;51.1968
73306;BME280;61530;51.158;0.880;2023-03-16T02:06:14;1008.01;;;6.5625;52.4201
73306;BME280;61530;51.158;0.880;2023-03-16T02:07:15;1008.04;;;6.6875;53.3088
73306;BME280;61530;51.158;0.880;2023-03-16T02:08:18;1007.97;;;6.625;53.1398
73306;BME280;61530;51.158;0.880;2023-03-16T02:09:22;1007.91;;;6.6875;54.296
73306;BME280;61530;51.158;0.880;2023-03-16T02:10:27;1007.85;;;6.6875;53.0245
73306;BME280;61530;51.158;0.880;2023-03-16T02:11:30;1007.85;;;6.6875;51.4776
73306;BME280;61530;51.158;0.880;2023-03-16T02:12:34;1007.8;;;6.625;50.2335
73306;BME280;61530;51.158;0.880;2023-03-16T02:13:37;1007.77;;;6.6875;51.8964
73306;BME280;61530;51.158;0.880;2023-03-16T02:14:43;1007.72;;;6.6875;51.1447
73306;BME280;61530;51.158;0.880;2023-03-16T02:15:46;1007.71;;;6.8125;52.0635
73306;BME280;61530;51.158;0.880;2023-03-16T02:16:49;1007.73;;;6.75;51.9169
73306;BME280;61530;51.158;0.880;2023-03-16T02:17:53;1007.78;;;6.6875;50.5083
73306;BME280;61530;51.158;0.880;2023-03-16T02:18:59;1007.76;;;6.75;51.1309
73306;BME280;61530;51.158;0.880;2023-03-16T02:20:13;1007.71;;;6.75;52.933
73306;BME280;61530;51.158;0.880;2023-03-16T02:21:13;1007.67;;;6.6875;50.8343
73306;BME280;61530;51.158;0.880;2023-03-16T02:22:09;1007.67;;;6.6875;49.0451
73306;BME280;61530;51.158;0.880;2023-03-16T02:23:18;1007.66;;;6.75;50.14
73306;BME280;61530;51.158;0.880;2023-03-16T02:24:18;1007.66;;;6.6875;49.7955
73306;BME280;61530;51.158;0.880;2023-03-16T02:25:24;1007.65;;;6.6875;51.6682
73306;BME280;61530;51.158;0.880;2023-03-16T02:26:30;1007.67;;;6.75;53.5804
73306;BME280;61530;51.158;0.880;2023-03-16T02:27:36;1007.65;;;6.75;53.443
73306;BME280;61530;51.158;0.880;2023-03-16T02:28:40;1007.74;;;6.75;53.4469
73306;BME280;61530;51.158;0.880;2023-03-16T02:29:59;1007.67;;;6.8125;51.6276
73306;BME280;61530;51.158;0.880;2023-03-16T02:30:41;1007.65;;;6.75;49.6693
73306;BME280;61530;51.158;0.880;2023-03-16T02:31:46;1007.68;;;6.75;53.5041
73306;BME280;61530;51.158;0.880;2023-03-16T02:32:52;1007.7;;;6.8125;54.4501
73306;BME280;61530;51.158;0.880;2023-03-16T02:33:54;1007.68;;;6.75;52.0938
73306;BME280;61530;51.158;0.880;2023-03-16T02:34:58;1007.68;;;6.75;53.7412
73306;BME280;61530;51.158;0.880;2023-03-16T02:36:03;1007.66;;;6.6875;54.9814
73306;BME280;61530;51.158;0.880;2023-03-16T02:37:07;1007.61;;;6.6875;54.2729
73306;BME280;61530;51.158;0.880;2023-03-16T02:38:09;1007.56;;;6.75;56.3055
73306;BME280;61530;51.158;0.880;2023-03-16T02:39:13;1007.5;;;6.75;54.54
73306;BME280;61530;51.158;0.880;2023-03-16T02:40:22;1007.56;;;6.6875;55.6894
73306;BME280;61530;51.158;0.880;2023-03-16T02:41:22;1007.55;;;6.6875;57.2373
73306;BME280;61530;51.158;0.880;2023-03-16T02:42:26;1007.49;;;6.75;57.0294
73306;BME280;61530;51.158;0.880;2023-03-16T02:43:33;1007.5;;;6.8125;55.6588
73306;BME280;61530;51.158;0.880;2023-03-16T02:44:36;1007.56;;;6.75;55.0133
73306;BME280;61530;51.158;0.880;2023-03-16T02:45:42;1007.53;;;6.75;56.161
73306;BME280;61530;51.158;0.880;2023-03-16T02:46:42;1007.44;;;6.75;57.6609
73306;BME280;61530;51.158;0.880;2023-03-16T02:47:48;1007.48;;;6.75;57.8373
73306;BME280;61530;51.158;0.880;2023-03-16T02:48:58;1007.45;;;6.6875;56.4965
73306;BME280;61530;51.158;0.880;2023-03-16T02:49:54;1007.51;;;6.625;55.6943
73306;BME280;61530;51.158;0.880;2023-03-16T02:50:57;1007.47;;;6.625;54.9405
73306;BME280;61530;51.158;0.880;2023-03-16T02:52:01;1007.31;;;6.625;52.7992
73306;BME280;61530;51.158;0.880;2023-03-16T02:53:06;1007.43;;;6.5625;53.9429
73306;BME280;61530;51.158;0.880;2023-03-16T02:54:10;1007.4;;;6.5625;57.5527
73306;BME280;61530;51.158;0.880;2023-03-16T02:55:14;1007.43;;;6.5625;55.6347
73306;BME280;61530;51.158;0.880;2023-03-16T02:56:17;1007.36;;;6.5625;52.9651
73306;BME280;61530;51.158;0.880;2023-03-16T02:57:22;1007.37;;;6.5625;55.8393
73306;BME280;61530;51.158;0.880;2023-03-16T02:58:26;1007.34;;;6.625;57.1686
73306;BME280;61530;51.158;0.880;2023-03-16T02:59:29;1007.31;;;6.6875;59.798
73306;BME280;61530;51.158;0.880;2023-03-16T03:00:33;1007.3;;;6.625;57.1365
73306;BME280;61530;51.158;0.880;2023-03-16T03:01:38;1007.3;;;6.625;57.7222
73306;BME280;61530;51.158;0.880;2023-03-16T03:02:42;1007.25;;;6.5625;57.028
73306;BME280;61530;51.158;0.880;2023-03-16T03:03:45;1007.24;;;6.5625;58.2175
73306;BME280;61530;51.158;0.880;2023-03-16T03:04:50;1007.26;;;6.625;55.0119
73306;BME280;61530;51.158;0.880;2023-03-16T03:05:55;1007.28;;;6.625;56.8703
73306;BME280;61530;51.158;0.880;2023-03-16T03:06:58;1007.29;;;6.5625;57.2021
73306;BME280;61530;51.158;0.880;2023-03-16T03:08:02;1007.3;;;6.5625;53.8847
73306;BME280;61530;51.158;0.880;2023-03-16T03:09:05;1007.27;;;6.625;52.6839
73306;BME280;61530;51.158;0.880;2023-03-16T03:10:10;1007.26;;;6.625;51.1835
73306;BME280;61530;51.158;0.880;2023-03-16T03:11:14;1007.17;;;6.625;52.1743
73306;BME280;61530;51.158;0.880;2023-03-16T03:12:17;1007.11;;;6.625;51.5482
73306;BME280;61530;51.158;0.880;2023-03-16T03:13:21;1007.06;;;6.625;50.6177
73306;BME280;61530;51.158;0.880;2023-03-16T03:14:26;1007.03;;;6.6875;52.0514
73306;BME280;61530;51.158;0.880;2023-03-16T03:15:30;1007.05;;;6.6875;51.4667
73306;BME280;61530;51.158;0.880;2023-03-16T03:16:33;1007.08;;;6.6875;52.1046
73306;BME280;61530;51.158;0.880;2023-03-16T03:17:37;1007.05;;;6.75;52.5145
73306;BME280;61530;51.158;0.880;2023-03-16T03:18:42;1007.06;;;6.8125;52.7175
73306;BME280;61530;51.158;0.880;2023-03-16T03:19:46;1007.07;;;6.75;55.5624
73306;BME280;61530;51.158;0.880;2023-03-16T03:20:49;1007.08;;;6.8125;55.2525
73306;BME280;61530;51.158;0.880;2023-03-16T03:21:53;1006.99;;;6.8125;53.4148
73306;BME280;61530;51.158;0.880;2023-03-16T03:22:58;1006.94;;;6.875;51.6428
73306;BME280;61530;51.158;0.880;2023-03-16T03:24:02;1006.88;;;6.8125;52.3363
73306;BME280;61530;51.158;0.880;2023-03-16T03:25:06;1006.88;;;6.75;51.6617
73306;BME280;61530;51.158;0.880;2023-03-16T03:26:09;1006.86;;;6.75;52.6457
73306;BME280;61530;51.158;0.880;2023-03-16T03:27:14;1006.87;;;6.875;48.4697
73306;BME280;61530;51.158;0.880;2023-03-16T03:28:18;1006.93;;;6.75;52.1599
73306;BME280;61530;51.158;0.880;2023-03-16T03:29:21;1006.92;;;6.875;54.6392
73306;BME280;61530;51.158;0.880;2023-03-16T03:30:25;1006.9;;;6.9375;52.2449
73306;BME280;61530;51.158;0.880;2023-03-16T03:31:30;1006.96;;;6.9375;52.3669
73306;BME280;61530;51.158;0.880;2023-03-16T03:32:34;1006.89;;;6.9375;50.8925
73306;BME280;61530;51.158;0.880;2023-03-16T03:33:37;1006.89;;;6.8125;50.5153
73306;BME280;61530;51.158;0.880;2023-03-16T03:34:41;1006.94;;;6.9375;49.8956
73306;BME280;61530;51.158;0.880;2023-03-16T03:35:47;1006.92;;;6.9375;50.7274
73306;BME280;61530;51.158;0.880;2023-03-16T03:36:50;1006.95;;;7.0;51.9358
73306;BME280;61530;51.158;0.880;2023-03-16T03:37:53;1006.95;;;6.875;54.5692
73306;BME280;61530;51.158;0.880;2023-03-16T03:38:57;1006.87;;;6.9375;52.8532
73306;BME280;61530;51.158;0.880;2023-03-16T03:40:03;1006.93;;;7.0;53.9911
73306;BME280;61530;51.158;0.880;2023-03-16T03:41:07;1006.87;;;7.0;54.3193
73306;BME280;61530;51.158;0.880;2023-03-16T03:42:10;1006.85;;;7.0;53.0833
73306;BME280;61530;51.158;0.880;2023-03-16T03:43:13;1006.83;;;6.9375;51.423
73306;BME280;61530;51.158;0.880;2023-03-16T03:44:19;1006.83;;;7.0;48.9014
73306;BME280;61530;51.158;0.880;2023-03-16T03:45:22;1006.82;;;7.0;47.7572
73306;BME280;61530;51.158;0.880;2023-03-16T03:46:26;1006.86;;;7.0;50.6751
73306;BME280;61530;51.158;0.880;2023-03-16T03:47:29;1006.83;;;6.9375;49.1293
73306;BME280;61530;51.158;0.880;2023-03-16T03:48:35;1006.85;;;6.875;51.9664
73306;BME280;61530;51.158;0.880;2023-03-16T03:49:38;1006.82;;;6.875;50.9038
73306;BME280;61530;51.158;0.880;2023-03-16T03:50:41;1006.79;;;6.875;50.579
73306;BME280;61530;51.158;0.880;2023-03-16T03:51:45;1006.84;;;6.9375;50.0661
73306;BME280;61530;51.158;0.880;2023-03-16T03:52:50;1006.81;;;6.8125;49.7474
73306;BME280;61530;51.158;0.880;2023-03-16T03:53:54;1006.81;;;6.875;50.3221
73306;BME280;61530;51.158;0.880;2023-03-16T03:54:57;1006.83;;;6.8125;52.7577
73306;BME280;61530;51.158;0.880;2023-03-16T03:56:01;1006.81;;;6.8125;51.7183
73306;BME280;61530;51.158;0.880;2023-03-16T03:57:06;1006.78;;;6.8125;52.1053
73306;BME280;61530;51.158;0.880;2023-03-16T03:58:10;1006.83;;;6.8125;52.7217
73306;BME280;61530;51.158;0.880;2023-03-16T03:59:13;1006.79;;;6.8125;55.7493
73306;BME280;61530;51.158;0.880;2023-03-16T04:00:17;1006.74;;;6.8125;54.0056
73306;BME280;61530;51.158;0.880;2023-03-16T04:01:23;1006.64;;;6.875;51.1988
73306;BME280;61530;51.158;0.880;2023-03-16T04:02:26;1006.66;;;6.875;49.6783
73306;BME280;61530;51.158;0.880;2023-03-16T04:03:29;1006.62;;;6.875;51.2288
73306;BME280;61530;51.158;0.880;2023-03-16T04:04:33;1006.64;;;6.875;51.7737
73306;BME280;61530;51.158;0.880;2023-03-16T04:05:38;1006.67;;;6.875;52.3692
73306;BME280;61530;51.158;0.880;2023-03-16T04:06:42;1006.66;;;6.9375;53.5227
73306;BME280;61530;51.158;0.880;2023-03-16T04:07:45;1006.69;;;6.9375;55.4962
73306;BME280;61530;51.158;0.880;2023-03-16T04:08:49;1006.62;;;6.9375;52.4062
73306;BME280;61530;51.158;0.880;2023-03-16T04:09:54;1006.64;;;6.9375;51.0
73306;BME280;61530;51.158;0.880;2023-03-16T04:10:58;1006.64;;;7.0;50.6935
73306;BME280;61530;51.158;0.880;2023-03-16T04:12:03;1006.59;;;6.875;49.3075
73306;BME280;61530;51.158;0.880;2023-03-16T04:13:05;1006.63;;;7.0625;53.1158
73306;BME280;61530;51.158;0.880;2023-03-16T04:14:10;1006.62;;;7.0;52.352
73306;BME280;61530;51.158;0.880;2023-03-16T04:15:14;1006.59;;;6.9375;51.9749
73306;BME280;61530;51.158;0.880;2023-03-16T04:16:17;1006.77;;;6.875;53.926
73306;BME280;61530;51.158;0.880;2023-03-16T04:17:21;1006.67;;;7.0625;55.2606
73306;BME280;61530;51.158;0.880;2023-03-16T04:18:27;1006.6;;;6.9375;54.8602
73306;BME280;61530;51.158;0.880;2023-03-16T04:19:30;1006.56;;;6.875;55.5093
73306;BME280;61530;51.158;0.880;2023-03-16T04:20:33;1006.53;;;6.9375;55.7014
73306;BME280;61530;51.158;0.880;2023-03-16T04:21:37;1006.49;;;6.9375;56.1151
73306;BME280;61530;51.158;0.880;2023-03-16T04:22:42;1006.5;;;6.9375;59.7377
73306;BME280;61530;51.158;0.880;2023-03-16T04:23:46;1006.5;;;6.9375;59.2047
73306;BME280;61530;51.158;0.880;2023-03-16T04:24:49;1006.47;;;6.875;56.4701
73306;BME280;61530;51.158;0.880;2023-03-16T04:25:53;1006.46;;;6.9375;53.8991
73306;BME280;61530;51.158;0.880;2023-03-16T04:26:58;1006.48;;;6.875;54.9355
73306;BME280;61530;51.158;0.880;2023-03-16T04:28:02;1006.49;;;6.875;56.2536
73306;BME280;61530;51.158;0.880;2023-03-16T04:29:05;1006.5;;;6.8125;54.1952
73306;BME280;61530;51.158;0.880;2023-03-16T04:30:12;1006.48;;;6.8125;52.1261
73306;BME280;61530;51.158;0.880;2023-03-16T04:31:14;1006.53;;;6.75;55.1443
73306;BME280;61530;51.158;0.880;2023-03-16T04:32:18;1006.55;;;6.8125;53.7982
73306;BME280;61530;51.158;0.880;2023-03-16T04:33:22;1006.6;;;6.8125;53.8301
73306;BME280;61530;51.158;0.880;2023-03-16T04:34:26;1006.59;;;6.8125;57.1275
73306;BME280;61530;51.158;0.880;2023-03-16T04:35:30;1006.56;;;6.6875;54.9597
73306;BME280;61530;51.158;0.880;2023-03-16T04:36:34;1006.61;;;6.8125;54.3574
73306;BME280;61530;51.158;0.880;2023-03-16T04:37:37;1006.55;;;6.75;54.2023
73306;BME280;61530;51.158;0.880;2023-03-16T04:38:41;1006.57;;;6.6875;55.4109
73306;BME280;61530;51.158;0.880;2023-03-16T04:39:46;1006.49;;;6.6875;55.2006
73306;BME280;61530;51.158;0.880;2023-03-16T04:40:50;1006.52;;;6.6875;55.1771
73306;BME280;61530;51.158;0.880;2023-03-16T04:41:53;1006.51;;;6.6875;54.9317
73306;BME280;61530;51.158;0.880;2023-03-16T04:42:57;1006.44;;;6.6875;53.5957
73306;BME280;61530;51.158;0.880;2023-03-16T04:44:03;1006.44;;;6.625;51.3416
73306;BME280;61530;51.158;0.880;2023-03-16T04:45:07;1006.41;;;6.75;50.7231
73306;BME280;61530;51.158;0.880;2023-03-16T04:46:10;1006.44;;;6.6875;51.4559
73306;BME280;61530;51.158;0.880;2023-03-16T04:47:15;1006.43;;;6.8125;52.3203
73306;BME280;61530;51.158;0.880;2023-03-16T04:48:19;1006.45;;;6.75;52.0984
73306;BME280;61530;51.158;0.880;2023-03-16T04:49:22;1006.51;;;6.75;53.0281
73306;BME280;61530;51.158;0.880;2023-03-16T04:50:25;1006.56;;;6.8125;54.2339
73306;BME280;61530;51.158;0.880;2023-03-16T04:51:29;1006.55;;;6.875;54.9325
73306;BME280;61530;51.158;0.880;2023-03-16T04:52:34;1006.49;;;6.875;57.6726
73306;BME280;61530;51.158;0.880;2023-03-16T04:53:38;1006.52;;;6.875;56.7213
73306;BME280;61530;51.158;0.880;2023-03-16T04:54:41;1006.45;;;6.875;57.3897
73306;BME280;61530;51.158;0.880;2023-03-16T04:55:45;1006.46;;;6.875;56.3635
73306;BME280;61530;51.158;0.880;2023-03-16T04:56:50;1006.47;;;6.875;56.4455
73306;BME280;61530;51.158;0.880;2023-03-16T04:57:54;1006.53;;;6.875;57.0209
73306;BME280;61530;51.158;0.880;2023-03-16T04:58:57;1006.44;;;6.8125;55.5409
73306;BME280;61530;51.158;0.880;2023-03-16T05:00:02;1006.39;;;6.875;53.0826
73306;BME280;61530;51.158;0.880;2023-03-16T05:01:06;1006.37;;;6.8125;53.4209
73306;BME280;61530;51.158;0.880;2023-03-16T05:02:10;1006.42;;;6.875;54.4207
73306;BME280;61530;51.158;0.880;2023-03-16T05:03:14;1006.43;;;6.875;54.5519
73306;BME280;61530;51.158;0.880;2023-03-16T05:04:17;1006.47;;;6.8125;55.3628
73306;BME280;61530;51.158;0.880;2023-03-16T05:05:25;1006.46;;;6.875;55.3917
73306;BME280;61530;51.158;0.880;2023-03-16T05:06:26;1006.5;;;6.9375;57.0581
73306;BME280;61530;51.158;0.880;2023-03-16T05:07:29;1006.46;;;6.875;57.7905
73306;BME280;61530;51.158;0.880;2023-03-16T05:08:33;1006.5;;;6.9375;56.8497
73306;BME280;61530;51.158;0.880;2023-03-16T05:09:39;1006.44;;;6.875;56.3753
73306;BME280;61530;51.158;0.880;2023-03-16T05:10:42;1006.47;;;7.0625;60.0514
73306;BME280;61530;51.158;0.880;2023-03-16T05:11:45;1006.48;;;7.0;56.5877
73306;BME280;61530;51.158;0.880;2023-03-16T05:12:49;1006.46;;;7.0625;57.87
73306;BME280;61530;51.158;0.880;2023-03-16T05:13:54;1006.41;;;7.125;57.9252
73306;BME280;61530;51.158;0.880;2023-03-16T05:14:58;1006.49;;;7.0625;56.3218
73306;BME280;61530;51.158;0.880;2023-03-16T05:16:02;1006.46;;;7.0;56.4043
73306;BME280;61530;51.158;0.880;2023-03-16T05:17:05;1006.41;;;7.125;56.3566
73306;BME280;61530;51.158;0.880;2023-03-16T05:18:10;1006.53;;;7.0625;57.0954
73306;BME280;61530;51.158;0.880;2023-03-16T05:19:14;1006.5;;;7.0625;57.228
73306;BME280;61530;51.158;0.880;2023-03-16T05:20:18;1006.51;;;7.0625;57.611
73306;BME280;61530;51.158;0.880;2023-03-16T05:21:21;1006.52;;;7.0625;56.0577
73306;BME280;61530;51.158;0.880;2023-03-16T05:22:26;1006.44;;;7.0625;54.4945
73306;BME280;61530;51.158;0.880;2023-03-16T05:23:30;1006.5;;;7.0;55.8848
73306;BME280;61530;51.158;0.880;2023-03-16T05:24:33;1006.47;;;6.9375;57.0563
73306;BME280;61530;51.158;0.880;2023-03-16T05:25:37;1006.43;;;6.9375;54.8718
73306;BME280;61530;51.158;0.880;2023-03-16T05:26:42;1006.39;;;6.875;54.1626
73306;BME280;61530;51.158;0.880;2023-03-16T05:27:47;1006.36;;;6.9375;53.841
73306;BME280;61530;51.158;0.880;2023-03-16T05:28:49;1006.38;;;6.75;54.2683
73306;BME280;61530;51.158;0.880;2023-03-16T05:29:53;1006.42;;;6.8125;56.5336
73306;BME280;61530;51.158;0.880;2023-03-16T05:30:58;1006.39;;;6.875;57.7455
73306;BME280;61530;51.158;0.880;2023-03-16T05:32:02;1006.35;;;6.8125;56.0523
73306;BME280;61530;51.158;0.880;2023-03-16T05:33:05;1006.35;;;6.875;55.473
73306;BME280;61530;51.158;0.880;2023-03-16T05:34:09;1006.32;;;6.8125;54.5187